Time;durP1;ratioP1;P1;durP2;ratioP2;P2;SDS_P1;SDS_P2;PMS_P1;PMS_P2;Temp;Humidity;BMP_temperature;BMP_pressure;BME280_temperature;BME280_humidity;BME280_pressure;Samples;Min_cycle;Max_cycle;Signal;HPM_P1;HPM_P2
2021/12/08 00:00:53;;;;;;;;;;;6.00;85.60;;;;;;5055395;28;19925;-83
2021/12/08 00:03:21;;;;;;;;;;;6.00;85.50;;;;;;5055333;28;19928;-84
2021/12/08 00:05:48;;;;;;;;;;;6.00;85.50;;;;;;5055106;28;19927;-84
2021/12/08 00:08:16;;;;;;;;;;;6.00;85.40;;;;;;5051900;28;20289;-84
2021/12/08 00:13:27;;;;;;;;;;;6.00;85.30;;;;;;5055683;28;19925;-85
2021/12/08 00:15:55;;;;;;;;;;;6.00;85.30;;;;;;5071572;28;19963;-86
2021/12/08 00:18:26;;;;;;;;;;;5.90;85.20;;;;;;5072768;28;19939;-84
2021/12/08 00:20:55;;;;;;;;;;;5.90;85.20;;;;;;5073758;28;19920;-84
2021/12/08 00:23:23;;;;;;;;;;;5.90;85.10;;;;;;5071362;28;19924;-85
2021/12/08 00:25:51;;;;;;;;;;;5.90;85.10;;;;;;5071261;28;19935;-86
2021/12/08 00:28:18;;;;;;;;;;;5.90;85.00;;;;;;5075609;28;20379;-85
2021/12/08 00:30:47;;;;;;;;;;;5.90;85.00;;;;;;5073574;28;19927;-86
2021/12/08 00:33:14;;;;;;;;;;;5.80;85.00;;;;;;5073500;28;20384;-86
2021/12/08 00:35:44;;;;;;;;;;;5.80;85.00;;;;;;5073705;28;19920;-86
2021/12/08 00:38:11;;;;;;;;;;;5.80;84.90;;;;;;5069641;28;19936;-85
2021/12/08 00:40:38;;;;;;;;;;;5.80;84.90;;;;;;5074004;28;19920;-84
2021/12/08 00:43:06;;;;;;;;;;;5.80;84.90;;;;;;5074234;28;19920;-84
2021/12/08 00:45:33;;;;;;;;;;;5.70;84.90;;;;;;5073274;28;19926;-84
2021/12/08 00:48:01;;;;;;;;;;;5.70;84.90;;;;;;5073636;28;20373;-87
2021/12/08 00:50:30;;;;;;;;;;;5.80;84.80;;;;;;5071913;28;19926;-84
2021/12/08 00:52:57;;;;;;;;;;;5.80;84.80;;;;;;5070028;28;20579;-86
2021/12/08 00:55:24;;;;;;;;;;;5.80;84.80;;;;;;5075423;28;19927;-84
2021/12/08 00:57:51;;;;;;;;;;;5.80;84.70;;;;;;5073291;28;19920;-84
2021/12/08 01:00:21;;;;;;;;;;;5.70;84.70;;;;;;5073378;28;19927;-84
2021/12/08 01:02:48;;;;;;;;;;;5.70;84.60;;;;;;5073332;28;20376;-84
2021/12/08 01:05:17;;;;;;;;;;;5.70;84.60;;;;;;5069813;28;19971;-85
2021/12/08 01:07:44;;;;;;;;;;;5.70;84.50;;;;;;5072589;28;19920;-85
2021/12/08 01:10:14;;;;;;;;;;;5.70;84.50;;;;;;5074597;28;19942;-85
2021/12/08 01:13:01;;;;;;;;;;;5.70;84.40;;;;;;5071936;28;19998;-84
2021/12/08 01:15:28;;;;;;;;;;;5.70;84.30;;;;;;5073254;28;19921;-84
2021/12/08 01:17:55;;;;;;;;;;;5.70;84.30;;;;;;5073329;28;19927;-85
2021/12/08 01:20:22;;;;;;;;;;;5.70;84.20;;;;;;5070800;28;19920;-85
2021/12/08 01:22:49;;;;;;;;;;;5.70;84.20;;;;;;5070793;28;19931;-84
2021/12/08 01:25:16;;;;;;;;;;;5.60;84.10;;;;;;5073099;28;19931;-84
2021/12/08 01:27:43;;;;;;;;;;;5.60;84.10;;;;;;5073031;28;19920;-84
2021/12/08 01:30:11;;;;;;;;;;;5.60;84.00;;;;;;5074664;28;19921;-85
2021/12/08 01:32:38;;;;;;;;;;;5.60;84.00;;;;;;5076768;28;19942;-85
2021/12/08 01:35:05;;;;;;;;;;;5.60;83.90;;;;;;5072335;28;20046;-85
2021/12/08 01:37:34;;;;;;;;;;;5.50;83.90;;;;;;5086132;28;19920;-84
2021/12/08 01:40:03;;;;;;;;;;;5.50;83.80;;;;;;5073932;28;19920;-84
2021/12/08 01:42:35;;;;;;;;;;;5.50;83.80;;;;;;5076600;28;19920;-84
2021/12/08 01:47:50;;;;;;;;;;;5.50;83.70;;;;;;5076396;28;20415;-85
2021/12/08 01:50:17;;;;;;;;;;;5.40;83.70;;;;;;5073307;28;19920;-84
2021/12/08 01:52:44;;;;;;;;;;;5.40;83.60;;;;;;5075384;28;19920;-84
2021/12/08 01:55:11;;;;;;;;;;;5.40;83.60;;;;;;5077790;28;19920;-84
2021/12/08 01:57:42;;;;;;;;;;;5.40;83.60;;;;;;5076318;28;19943;-84
2021/12/08 02:00:11;;;;;;;;;;;5.30;83.60;;;;;;5076393;28;19920;-84
2021/12/08 02:02:38;;;;;;;;;;;5.30;83.50;;;;;;5076068;28;19926;-84
2021/12/08 02:05:05;;;;;;;;;;;5.30;83.50;;;;;;5071686;28;20412;-84
2021/12/08 02:07:33;;;;;;;;;;;5.30;83.50;;;;;;5089790;28;20007;-84
2021/12/08 02:10:00;;;;;;;;;;;5.20;83.50;;;;;;5074752;28;19920;-84
2021/12/08 02:12:29;;;;;;;;;;;5.20;83.50;;;;;;5076012;28;19924;-84
2021/12/08 02:14:57;;;;;;;;;;;5.20;83.50;;;;;;5076040;28;19920;-84
2021/12/08 02:17:25;;;;;;;;;;;5.20;83.40;;;;;;5073917;28;19927;-84
2021/12/08 02:19:52;;;;;;;;;;;5.20;83.40;;;;;;5072894;28;19920;-84
2021/12/08 02:22:19;;;;;;;;;;;5.20;83.40;;;;;;5077921;28;19921;-84
2021/12/08 02:24:46;;;;;;;;;;;5.10;83.40;;;;;;5075869;28;19947;-84
2021/12/08 02:27:13;;;;;;;;;;;5.10;83.40;;;;;;5075684;28;20320;-85
2021/12/08 02:29:51;;;;;;;;;;;5.10;83.40;;;;;;5075756;28;20383;-84
2021/12/08 02:48:37;;;;;;;;;;;4.90;83.30;;;;;;5075008;28;20252;-84
2021/12/08 02:51:04;;;;;;;;;;;4.90;83.30;;;;;;5073979;28;19921;-83
2021/12/08 02:53:31;;;;;;;;;;;4.90;83.30;;;;;;5074308;28;20398;-84
2021/12/08 02:55:59;;;;;;;;;;;4.90;83.40;;;;;;5071288;28;19927;-84
2021/12/08 02:58:26;;;;;;;;;;;4.90;83.40;;;;;;5077041;28;19920;-84
2021/12/08 03:00:55;;;;;;;;;;;4.90;83.40;;;;;;5075045;28;19920;-84
2021/12/08 03:03:22;;;;;;;;;;;4.90;83.40;;;;;;5073822;28;19920;-86
2021/12/08 03:05:49;;;;;;;;;;;4.90;83.30;;;;;;5075081;28;20403;-85
2021/12/08 03:08:17;;;;;;;;;;;4.90;83.30;;;;;;5072097;28;19920;-84
2021/12/08 03:10:47;;;;;;;;;;;4.90;83.30;;;;;;5073348;28;19920;-84
2021/12/08 03:13:13;;;;;;;;;;;4.90;83.30;;;;;;5092132;28;19920;-84
2021/12/08 03:15:42;;;;;;;;;;;4.90;83.20;;;;;;5074377;28;19966;-84
2021/12/08 03:18:10;;;;;;;;;;;4.90;83.20;;;;;;5074602;28;19926;-84
2021/12/08 03:20:41;;;;;;;;;;;4.90;83.20;;;;;;5074579;28;20472;-86
2021/12/08 03:23:11;;;;;;;;;;;4.90;83.10;;;;;;5070718;28;19921;-84
2021/12/08 03:25:42;;;;;;;;;;;4.90;83.10;;;;;;5074906;28;20388;-84
2021/12/08 03:28:23;;;;;;;;;;;4.90;83.10;;;;;;5075632;28;20331;-86
2021/12/08 03:31:16;;;;;;;;;;;4.90;83.10;;;;;;5074152;28;19927;-84
2021/12/08 03:33:38;;;;;;;;;;;4.90;83.00;;;;;;5074335;28;20035;-85
2021/12/08 03:36:06;;;;;;;;;;;4.80;83.00;;;;;;5074353;28;19927;-85
2021/12/08 03:38:33;;;;;;;;;;;4.80;83.00;;;;;;5073727;28;19945;-84
2021/12/08 03:41:02;;;;;;;;;;;4.90;83.00;;;;;;5070233;28;20389;-84
2021/12/08 03:43:30;;;;;;;;;;;4.80;83.00;;;;;;5076239;28;19921;-85
2021/12/08 03:45:58;;;;;;;;;;;4.80;83.00;;;;;;5073668;28;19975;-84
2021/12/08 03:48:29;;;;;;;;;;;4.80;82.90;;;;;;5074152;28;19974;-84
2021/12/08 03:50:57;;;;;;;;;;;4.80;82.90;;;;;;5074213;28;19926;-84
2021/12/08 03:53:23;;;;;;;;;;;4.80;82.90;;;;;;5072043;28;19924;-84
2021/12/08 03:55:52;;;;;;;;;;;4.80;82.90;;;;;;5071272;28;19920;-84
2021/12/08 03:58:20;;;;;;;;;;;4.80;82.90;;;;;;5076105;28;19924;-84
2021/12/08 04:00:47;;;;;;;;;;;4.70;82.90;;;;;;5073472;28;19933;-84
2021/12/08 04:03:14;;;;;;;;;;;4.70;83.00;;;;;;5073963;28;19920;-84
2021/12/08 04:08:30;;;;;;;;;;;4.70;83.00;;;;;;5071762;28;19920;-84
2021/12/08 04:10:58;;;;;;;;;;;4.70;83.00;;;;;;5070168;28;19921;-84
2021/12/08 04:13:27;;;;;;;;;;;4.70;83.10;;;;;;5075524;28;19920;-84
2021/12/08 04:15:55;;;;;;;;;;;4.70;83.10;;;;;;5072454;28;19963;-87
2021/12/08 04:18:22;;;;;;;;;;;4.70;83.10;;;;;;5073762;28;19921;-86
2021/12/08 04:20:51;;;;;;;;;;;4.70;83.20;;;;;;5074094;28;19983;-84
2021/12/08 04:23:20;;;;;;;;;;;4.70;83.20;;;;;;5071248;28;19921;-84
2021/12/08 04:25:48;;;;;;;;;;;4.70;83.20;;;;;;5072052;28;19921;-84
2021/12/08 04:28:18;;;;;;;;;;;4.70;83.20;;;;;;5073213;28;20285;-86
2021/12/08 04:30:52;;;;;;;;;;;4.70;83.20;;;;;;5073765;28;19927;-86
2021/12/08 04:33:20;;;;;;;;;;;4.80;83.30;;;;;;5073497;28;19927;-85
2021/12/08 04:35:48;;;;;;;;;;;4.80;83.30;;;;;;5073699;28;19920;-84
2021/12/08 04:38:22;;;;;;;;;;;4.80;83.30;;;;;;5070442;28;19920;-87
2021/12/08 04:41:03;;;;;;;;;;;4.80;83.30;;;;;;5071226;28;19920;-84
2021/12/08 04:43:39;;;;;;;;;;;4.80;83.30;;;;;;5082357;28;19924;-85
2021/12/08 04:51:41;;;;;;;;;;;4.90;83.10;;;;;;5073449;28;20381;-84
2021/12/08 05:05:48;;;;;;;;;;;4.80;82.90;;;;;;5071054;28;20503;-86
2021/12/08 05:07:57;;;;;;;;;;;4.80;82.80;;;;;;5088194;28;19919;-84
2021/12/08 05:10:27;;;;;;;;;;;4.80;82.80;;;;;;5078372;28;19928;-85
2021/12/08 05:12:55;;;;;;;;;;;4.80;82.70;;;;;;5076746;28;19924;-84
2021/12/08 05:15:31;;;;;;;;;;;4.80;82.70;;;;;;5077181;28;20003;-88
2021/12/08 05:18:07;;;;;;;;;;;4.80;82.70;;;;;;5076865;28;20007;-85
2021/12/08 05:20:39;;;;;;;;;;;4.70;82.70;;;;;;5076707;28;19920;-86
2021/12/08 05:23:13;;;;;;;;;;;4.70;82.60;;;;;;5056968;28;20305;-85
2021/12/08 05:25:41;;;;;;;;;;;4.70;82.60;;;;;;5076984;28;19920;-84
2021/12/08 05:28:12;;;;;;;;;;;4.70;82.60;;;;;;5077720;28;20369;-84
2021/12/08 05:30:46;;;;;;;;;;;4.70;82.60;;;;;;5076936;28;19926;-85
2021/12/08 05:33:13;;;;;;;;;;;4.70;82.60;;;;;;5076791;28;20544;-85
2021/12/08 05:35:41;;;;;;;;;;;4.70;82.60;;;;;;5076720;28;19927;-85
2021/12/08 05:38:08;;;;;;;;;;;4.70;82.50;;;;;;5072712;28;19928;-84
2021/12/08 05:40:35;;;;;;;;;;;4.70;82.50;;;;;;5077645;28;19926;-84
2021/12/08 05:43:03;;;;;;;;;;;4.60;82.50;;;;;;5077075;28;19927;-84
2021/12/08 05:45:30;;;;;;;;;;;4.70;82.50;;;;;;5076312;28;20427;-84
2021/12/08 05:47:57;;;;;;;;;;;4.60;82.50;;;;;;5076485;28;19927;-85
2021/12/08 05:50:29;;;;;;;;;;;4.60;82.50;;;;;;5074600;28;19921;-84
2021/12/08 05:52:56;;;;;;;;;;;4.60;82.40;;;;;;5072833;28;19928;-84
2021/12/08 05:55:23;;;;;;;;;;;4.60;82.40;;;;;;5078045;28;19924;-85
2021/12/08 05:57:50;;;;;;;;;;;4.60;82.40;;;;;;5076150;28;19943;-85
2021/12/08 06:00:23;;;;;;;;;;;4.50;82.40;;;;;;5076360;28;19927;-84
2021/12/08 06:02:52;;;;;;;;;;;4.50;82.40;;;;;;5076318;28;19920;-84
2021/12/08 06:05:19;;;;;;;;;;;4.50;82.40;;;;;;5073731;28;19994;-84
2021/12/08 06:07:46;;;;;;;;;;;4.50;82.40;;;;;;5074786;28;20280;-84
2021/12/08 06:10:18;;;;;;;;;;;4.50;82.30;;;;;;5077618;28;20396;-84
2021/12/08 06:12:45;;;;;;;;;;;4.50;82.30;;;;;;5075979;28;19927;-85
2021/12/08 06:15:12;;;;;;;;;;;4.50;82.30;;;;;;5075839;28;19920;-84
2021/12/08 06:17:40;;;;;;;;;;;4.40;82.30;;;;;;5075993;28;19920;-84
2021/12/08 06:20:08;;;;;;;;;;;4.40;82.30;;;;;;5070469;28;20393;-84
2021/12/08 06:22:35;;;;;;;;;;;4.40;82.30;;;;;;5077298;28;19921;-84
2021/12/08 06:25:03;;;;;;;;;;;4.40;82.30;;;;;;5076163;28;19921;-84
2021/12/08 06:27:30;;;;;;;;;;;4.30;82.20;;;;;;5075759;28;20297;-84
2021/12/08 06:29:57;;;;;;;;;;;4.30;82.20;;;;;;5075708;28;20395;-84
2021/12/08 06:32:25;;;;;;;;;;;4.30;82.20;;;;;;5073879;28;19920;-84
2021/12/08 06:34:54;;;;;;;;;;;4.30;82.20;;;;;;5072787;28;19926;-84
2021/12/08 06:37:25;;;;;;;;;;;4.30;82.20;;;;;;5077609;28;20381;-84
2021/12/08 06:39:57;;;;;;;;;;;4.20;82.20;;;;;;5075083;28;20369;-84
2021/12/08 06:42:27;;;;;;;;;;;4.20;82.30;;;;;;5074299;28;19927;-84
2021/12/08 06:44:55;;;;;;;;;;;4.20;82.30;;;;;;5075225;28;19920;-84
2021/12/08 06:47:23;;;;;;;;;;;4.20;82.30;;;;;;5073267;28;19920;-85
2021/12/08 06:49:52;;;;;;;;;;;4.20;82.30;;;;;;5071543;28;19921;-84
2021/12/08 06:52:38;;;;;;;;;;;4.20;82.30;;;;;;5077315;28;19921;-84
2021/12/08 06:55:19;;;;;;;;;;;4.10;82.30;;;;;;5074287;28;19921;-84
2021/12/08 06:57:49;;;;;;;;;;;4.10;82.30;;;;;;5074733;28;19927;-84
2021/12/08 07:00:23;;;;;;;;;;;4.10;82.40;;;;;;5075210;28;19927;-84
2021/12/08 07:03:04;;;;;;;;;;;4.10;82.40;;;;;;5075158;28;19926;-84
2021/12/08 07:06:02;;;;;;;;;;;4.10;82.40;;;;;;5074372;28;19923;-84
2021/12/08 07:08:19;;;;;;;;;;;4.10;82.50;;;;;;5058275;28;19920;-84
2021/12/08 07:10:47;;;;;;;;;;;4.10;82.50;;;;;;5073351;28;20312;-84
2021/12/08 07:13:22;;;;;;;;;;;4.10;82.60;;;;;;5075391;28;20305;-84
2021/12/08 07:15:51;;;;;;;;;;;4.10;82.60;;;;;;5074493;28;20010;-84
2021/12/08 07:18:27;;;;;;;;;;;4.10;82.60;;;;;;5074781;28;20539;-84
2021/12/08 07:21:00;;;;;;;;;;;4.10;82.70;;;;;;5074665;28;19920;-84
2021/12/08 07:23:35;;;;;;;;;;;4.10;82.70;;;;;;5073122;28;20304;-84
2021/12/08 07:26:24;;;;;;;;;;;4.10;82.80;;;;;;5054316;28;19964;-84
2021/12/08 07:28:52;;;;;;;;;;;4.10;82.80;;;;;;5084587;28;19920;-83
2021/12/08 07:31:24;;;;;;;;;;;4.10;82.80;;;;;;5074183;28;19924;-83
2021/12/08 07:33:54;;;;;;;;;;;4.10;82.90;;;;;;5080190;28;19923;-83
2021/12/08 07:36:22;;;;;;;;;;;4.10;82.90;;;;;;5080019;28;20385;-83
2021/12/08 07:38:51;;;;;;;;;;;4.10;82.90;;;;;;5075623;28;19923;-83
2021/12/08 07:41:37;;;;;;;;;;;4.10;82.90;;;;;;5072783;28;19924;-83
2021/12/08 07:44:10;;;;;;;;;;;4.20;82.80;;;;;;5070635;28;19925;-84
2021/12/08 07:46:46;;;;;;;;;;;4.10;82.80;;;;;;5085421;28;20368;-83
2021/12/08 07:49:16;;;;;;;;;;;4.10;82.80;;;;;;5076759;28;19920;-83
2021/12/08 07:51:46;;;;;;;;;;;4.10;82.80;;;;;;5073400;28;19924;-83
2021/12/08 07:54:13;;;;;;;;;;;4.10;82.80;;;;;;5075104;28;19920;-83
2021/12/08 07:56:41;;;;;;;;;;;4.10;82.80;;;;;;5075239;28;19926;-83
2021/12/08 07:59:10;;;;;;;;;;;4.10;82.80;;;;;;5069234;28;19920;-83
2021/12/08 08:01:40;;;;;;;;;;;4.10;82.80;;;;;;5076046;28;19921;-83
2021/12/08 08:04:09;;;;;;;;;;;4.10;82.80;;;;;;5074596;28;19931;-83
2021/12/08 08:06:38;;;;;;;;;;;4.10;82.80;;;;;;5074485;28;19920;-84
2021/12/08 08:09:07;;;;;;;;;;;4.10;82.80;;;;;;5075152;28;19926;-82
2021/12/08 08:11:39;;;;;;;;;;;4.00;82.80;;;;;;5074670;28;19926;-83
2021/12/08 08:14:06;;;;;;;;;;;4.00;82.80;;;;;;5054792;28;19995;-83
2021/12/08 08:16:35;;;;;;;;;;;4.00;82.80;;;;;;5076895;28;19966;-83
2021/12/08 08:19:09;;;;;;;;;;;4.00;82.80;;;;;;5075440;28;19943;-83
2021/12/08 08:21:38;;;;;;;;;;;4.00;82.80;;;;;;5074220;28;19927;-84
2021/12/08 08:24:05;;;;;;;;;;;4.00;82.80;;;;;;5074810;28;19920;-84
2021/12/08 08:26:33;;;;;;;;;;;4.00;82.80;;;;;;5073993;28;19920;-83
2021/12/08 08:29:00;;;;;;;;;;;4.00;82.70;;;;;;5070732;28;20385;-84
2021/12/08 08:31:30;;;;;;;;;;;4.00;82.80;;;;;;5076781;28;20023;-84
2021/12/08 08:33:57;;;;;;;;;;;4.00;82.80;;;;;;5074574;28;20019;-83
2021/12/08 08:36:26;;;;;;;;;;;4.00;82.80;;;;;;5074166;28;19920;-84
2021/12/08 08:38:56;;;;;;;;;;;3.90;82.80;;;;;;5072136;28;19920;-83
2021/12/08 08:41:23;;;;;;;;;;;3.90;82.80;;;;;;5076648;28;19921;-83
2021/12/08 08:43:51;;;;;;;;;;;3.90;82.90;;;;;;5076237;28;20299;-83
2021/12/08 08:46:20;;;;;;;;;;;3.90;82.90;;;;;;5078823;28;19920;-83
2021/12/08 08:48:52;;;;;;;;;;;3.90;82.90;;;;;;5077292;28;19928;-83
2021/12/08 08:51:19;;;;;;;;;;;3.90;82.90;;;;;;5077483;28;19924;-83
2021/12/08 08:53:49;;;;;;;;;;;4.00;82.90;;;;;;5078803;28;20322;-84
2021/12/08 08:56:24;;;;;;;;;;;3.90;82.90;;;;;;5075814;28;19938;-83
2021/12/08 08:58:53;;;;;;;;;;;3.90;82.90;;;;;;5075991;28;19943;-84
2021/12/08 09:01:25;;;;;;;;;;;3.90;82.90;;;;;;5079401;28;20531;-84
2021/12/08 09:03:55;;;;;;;;;;;3.90;82.90;;;;;;5077950;28;19921;-83
2021/12/08 09:06:24;;;;;;;;;;;4.00;82.90;;;;;;5077708;28;19928;-83
2021/12/08 09:08:51;;;;;;;;;;;3.90;82.90;;;;;;5077300;28;20003;-82
2021/12/08 09:11:21;;;;;;;;;;;3.90;82.90;;;;;;5074579;28;20404;-84
2021/12/08 09:13:48;;;;;;;;;;;3.90;83.00;;;;;;5075221;28;20003;-82
2021/12/08 09:16:23;;;;;;;;;;;3.90;83.00;;;;;;5079012;28;19926;-83
2021/12/08 09:18:59;;;;;;;;;;;3.90;83.00;;;;;;5075394;28;19928;-83
2021/12/08 09:22:00;;;;;;;;;;;3.90;83.00;;;;;;5077006;28;20407;-82
2021/12/08 09:24:56;;;;;;;;;;;3.90;83.00;;;;;;5042506;28;19921;-82
2021/12/08 09:27:29;;;;;;;;;;;3.90;83.10;;;;;;5042401;28;20377;-84
2021/12/08 09:29:58;;;;;;;;;;;3.90;83.10;;;;;;5042558;28;20353;-83
2021/12/08 09:32:31;;;;;;;;;;;4.00;83.10;;;;;;5043945;28;19928;-82
2021/12/08 09:35:01;;;;;;;;;;;4.00;83.10;;;;;;5047329;28;20007;-83
2021/12/08 09:37:30;;;;;;;;;;;4.00;83.20;;;;;;5034684;28;19921;-84
2021/12/08 09:40:01;;;;;;;;;;;4.00;83.20;;;;;;5042409;28;19921;-83
2021/12/08 09:42:40;;;;;;;;;;;4.00;83.20;;;;;;5042362;28;19920;-83
2021/12/08 09:45:10;;;;;;;;;;;4.00;83.30;;;;;;5042060;28;19920;-82
2021/12/08 09:47:38;;;;;;;;;;;4.10;83.30;;;;;;5042090;28;19921;-83
2021/12/08 09:50:06;;;;;;;;;;;4.10;83.40;;;;;;5015211;28;20297;-83
2021/12/08 09:52:33;;;;;;;;;;;4.10;83.40;;;;;;5051365;28;19943;-84
2021/12/08 09:55:01;;;;;;;;;;;4.20;83.40;;;;;;5042076;28;19927;-83
2021/12/08 09:57:29;;;;;;;;;;;4.30;83.40;;;;;;5046373;28;19959;-83
2021/12/08 09:59:56;;;;;;;;;;;4.40;83.40;;;;;;5060587;28;20433;-84
2021/12/08 10:02:34;;;;;;;;;;;4.50;83.30;;;;;;5074160;28;19920;-82
2021/12/08 10:05:08;;;;;;;;;;;4.50;83.30;;;;;;5072309;28;19926;-83
2021/12/08 10:07:35;;;;;;;;;;;4.60;83.20;;;;;;5101704;28;19920;-82
2021/12/08 10:10:03;;;;;;;;;;;4.70;83.10;;;;;;5076582;28;19921;-83
2021/12/08 10:12:33;;;;;;;;;;;4.80;83.00;;;;;;5076222;28;19920;-84
2021/12/08 10:15:01;;;;;;;;;;;4.90;82.90;;;;;;5076200;28;19944;-82
2021/12/08 10:17:33;;;;;;;;;;;4.90;82.80;;;;;;5074864;28;19930;-83
2021/12/08 10:20:05;;;;;;;;;;;5.00;82.60;;;;;;5070930;28;19920;-82
2021/12/08 10:22:32;;;;;;;;;;;5.00;82.50;;;;;;5085162;28;19926;-82
2021/12/08 10:25:04;;;;;;;;;;;5.10;82.40;;;;;;5076068;28;20340;-84
2021/12/08 10:27:32;;;;;;;;;;;5.10;82.40;;;;;;5075728;28;19931;-82
2021/12/08 10:30:18;;;;;;;;;;;5.20;82.30;;;;;;5075615;28;19940;-82
2021/12/08 10:32:45;;;;;;;;;;;5.30;82.20;;;;;;5075713;28;19926;-82
2021/12/08 10:35:38;;;;;;;;;;;5.40;82.10;;;;;;5070654;28;19927;-83
2021/12/08 10:38:05;;;;;;;;;;;5.50;82.00;;;;;;5068399;28;20373;-82
2021/12/08 10:40:33;;;;;;;;;;;5.60;81.80;;;;;;5085039;28;20288;-81
2021/12/08 10:43:11;;;;;;;;;;;5.70;81.70;;;;;;5075860;28;19920;-83
2021/12/08 10:45:38;;;;;;;;;;;5.80;81.60;;;;;;5074924;28;19926;-83
2021/12/08 10:48:07;;;;;;;;;;;5.90;81.50;;;;;;5074240;28;19920;-82
2021/12/08 10:56:38;;;;;;;;;;;6.20;81.10;;;;;;5073976;28;19926;-84
2021/12/08 10:59:06;;;;;;;;;;;6.40;80.90;;;;;;5055170;28;19921;-83
2021/12/08 11:01:34;;;;;;;;;;;6.40;80.70;;;;;;5084155;28;20014;-82
2021/12/08 11:04:05;;;;;;;;;;;6.50;80.50;;;;;;5073082;28;19924;-82
2021/12/08 11:06:34;;;;;;;;;;;6.60;80.30;;;;;;5074924;28;19920;-82
2021/12/08 11:09:03;;;;;;;;;;;6.70;80.20;;;;;;5074921;28;19926;-82
2021/12/08 11:11:33;;;;;;;;;;;6.70;80.00;;;;;;5073975;28;20377;-82
2021/12/08 11:14:02;;;;;;;;;;;6.80;79.90;;;;;;5069437;28;20498;-82
2021/12/08 11:16:29;;;;;;;;;;;6.80;79.80;;;;;;5076792;28;19946;-82
2021/12/08 11:19:14;;;;;;;;;;;6.90;79.70;;;;;;5073771;28;19921;-82
2021/12/08 11:21:46;;;;;;;;;;;6.90;79.60;;;;;;5074778;28;19927;-82
2021/12/08 11:24:16;;;;;;;;;;;6.90;79.50;;;;;;5073682;28;19920;-82
2021/12/08 11:26:47;;;;;;;;;;;6.90;79.50;;;;;;5074663;28;19920;-82
2021/12/08 11:29:22;;;;;;;;;;;7.00;79.50;;;;;;5070966;28;19928;-83
2021/12/08 11:31:49;;;;;;;;;;;7.00;79.50;;;;;;5071302;28;19920;-82
2021/12/08 11:34:19;;;;;;;;;;;7.10;79.50;;;;;;5074370;28;19942;-82
2021/12/08 11:36:49;;;;;;;;;;;7.10;79.50;;;;;;5074526;28;19920;-81
2021/12/08 11:39:18;;;;;;;;;;;7.20;79.50;;;;;;5074469;28;20395;-81
2021/12/08 11:41:49;;;;;;;;;;;7.20;79.50;;;;;;5074500;28;20002;-82
2021/12/08 11:44:17;;;;;;;;;;;7.20;79.40;;;;;;5070728;28;19920;-82
2021/12/08 11:47:03;;;;;;;;;;;7.20;79.40;;;;;;5070546;28;19920;-83
2021/12/08 11:49:30;;;;;;;;;;;7.30;79.30;;;;;;5075129;28;19927;-83
2021/12/08 11:52:09;;;;;;;;;;;7.30;79.30;;;;;;5074232;28;19924;-82
2021/12/08 11:54:39;;;;;;;;;;;7.30;79.20;;;;;;5072796;28;19921;-82
2021/12/08 11:57:11;;;;;;;;;;;7.30;79.20;;;;;;5074097;28;20011;-82
2021/12/08 11:59:45;;;;;;;;;;;7.30;79.10;;;;;;5073874;28;20129;-82
2021/12/08 12:02:14;;;;;;;;;;;7.30;79.00;;;;;;5055433;28;19928;-82
2021/12/08 12:04:42;;;;;;;;;;;7.30;78.90;;;;;;5074090;28;19976;-82
2021/12/08 12:07:10;;;;;;;;;;;7.40;78.90;;;;;;5074967;28;19920;-82
2021/12/08 12:09:37;;;;;;;;;;;7.40;78.80;;;;;;5073938;28;20391;-82
2021/12/08 12:12:04;;;;;;;;;;;7.40;78.80;;;;;;5073575;28;19931;-82
2021/12/08 12:14:31;;;;;;;;;;;7.40;78.70;;;;;;5072789;28;19930;-82
2021/12/08 12:16:58;;;;;;;;;;;7.40;78.60;;;;;;5070339;28;19920;-82
2021/12/08 12:19:27;;;;;;;;;;;7.40;78.50;;;;;;5075973;28;19920;-81
2021/12/08 12:21:56;;;;;;;;;;;7.40;78.40;;;;;;5073766;28;20391;-82
2021/12/08 12:24:41;;;;;;;;;;;7.40;78.40;;;;;;5073952;28;19920;-82
2021/12/08 12:27:08;;;;;;;;;;;7.40;78.30;;;;;;5073326;28;19921;-82
2021/12/08 12:29:54;;;;;;;;;;;7.30;78.30;;;;;;5073401;28;20369;-82
2021/12/08 12:32:30;;;;;;;;;;;7.40;78.30;;;;;;5057560;28;19926;-82
2021/12/08 12:35:11;;;;;;;;;;;7.40;78.30;;;;;;5068967;28;19935;-82
2021/12/08 12:37:39;;;;;;;;;;;7.40;78.30;;;;;;5099189;28;20503;-82
2021/12/08 12:40:08;;;;;;;;;;;7.40;78.20;;;;;;5072967;28;19943;-82
2021/12/08 12:42:47;;;;;;;;;;;7.30;78.20;;;;;;5073439;28;19920;-82
2021/12/08 12:45:15;;;;;;;;;;;7.40;78.20;;;;;;5073396;28;19927;-83
2021/12/08 12:47:42;;;;;;;;;;;7.30;78.20;;;;;;5073788;28;19920;-82
2021/12/08 12:50:15;;;;;;;;;;;7.40;78.20;;;;;;5069587;28;20481;-82
2021/12/08 12:52:49;;;;;;;;;;;7.30;78.20;;;;;;5073492;28;19931;-82
2021/12/08 12:55:18;;;;;;;;;;;7.30;78.10;;;;;;5073326;28;19928;-82
2021/12/08 12:58:00;;;;;;;;;;;7.30;78.10;;;;;;5073399;28;19963;-82
2021/12/08 13:00:29;;;;;;;;;;;7.40;78.10;;;;;;5073405;28;20523;-82
2021/12/08 13:02:56;;;;;;;;;;;7.30;78.10;;;;;;5073462;28;19920;-82
2021/12/08 13:05:23;;;;;;;;;;;7.30;78.10;;;;;;5071159;28;19921;-82
2021/12/08 13:07:59;;;;;;;;;;;7.30;78.00;;;;;;5071218;28;19920;-81
2021/12/08 13:10:33;;;;;;;;;;;7.20;78.00;;;;;;5074187;28;19952;-81
2021/12/08 13:13:10;;;;;;;;;;;7.20;78.00;;;;;;5072023;28;20003;-82
2021/12/08 13:15:40;;;;;;;;;;;7.20;78.00;;;;;;5073235;28;19927;-82
2021/12/08 13:18:07;;;;;;;;;;;7.20;78.00;;;;;;5073331;28;19930;-82
2021/12/08 13:21:03;;;;;;;;;;;7.20;78.00;;;;;;5072641;28;19920;-82
2021/12/08 13:23:30;;;;;;;;;;;7.20;78.00;;;;;;5059461;28;19920;-82
2021/12/08 13:26:07;;;;;;;;;;;7.10;78.00;;;;;;5070592;28;20015;-81
2021/12/08 13:28:36;;;;;;;;;;;7.10;78.10;;;;;;5090773;28;19942;-82
2021/12/08 13:34:04;;;;;;;;;;;7.00;78.10;;;;;;5076875;28;20011;-82
2021/12/08 13:36:35;;;;;;;;;;;7.00;78.20;;;;;;5076714;28;19990;-82
2021/12/08 13:39:12;;;;;;;;;;;7.00;78.20;;;;;;5076416;28;19926;-82
2021/12/08 13:41:40;;;;;;;;;;;6.90;78.20;;;;;;5076937;28;19920;-82
2021/12/08 13:44:26;;;;;;;;;;;6.90;78.20;;;;;;5072240;28;20372;-82
2021/12/08 13:46:54;;;;;;;;;;;6.90;78.20;;;;;;5073909;28;19920;-82
2021/12/08 13:49:26;;;;;;;;;;;6.90;78.30;;;;;;5078744;28;19928;-82
2021/12/08 13:52:02;;;;;;;;;;;6.90;78.40;;;;;;5076549;28;19925;-81
2021/12/08 13:54:32;;;;;;;;;;;6.90;78.40;;;;;;5076217;28;19954;-82
2021/12/08 13:56:59;;;;;;;;;;;6.80;78.40;;;;;;5076307;28;20376;-82
2021/12/08 13:59:58;;;;;;;;;;;6.90;78.50;;;;;;5074761;28;19920;-82
2021/12/08 14:02:32;;;;;;;;;;;6.80;78.50;;;;;;5020257;28;20424;-82
2021/12/08 14:05:05;;;;;;;;;;;6.80;78.60;;;;;;5047415;28;19929;-82
2021/12/08 14:07:37;;;;;;;;;;;6.80;78.60;;;;;;5031013;28;20012;-82
2021/12/08 14:10:05;;;;;;;;;;;6.70;78.60;;;;;;5046518;28;19939;-82
2021/12/08 14:12:53;;;;;;;;;;;6.70;78.70;;;;;;5041715;28;19925;-82
2021/12/08 14:15:25;;;;;;;;;;;6.70;78.70;;;;;;5041584;28;19921;-82
2021/12/08 14:17:52;;;;;;;;;;;6.70;78.80;;;;;;5041647;28;19921;-82
2021/12/08 14:20:25;;;;;;;;;;;6.70;78.80;;;;;;5044628;28;19928;-82
2021/12/08 14:22:53;;;;;;;;;;;6.70;78.90;;;;;;5046182;28;19920;-82
2021/12/08 14:25:49;;;;;;;;;;;6.70;78.90;;;;;;5049154;28;19920;-82
2021/12/08 14:28:26;;;;;;;;;;;6.70;79.00;;;;;;5026245;28;19927;-82
2021/12/08 14:30:53;;;;;;;;;;;6.60;79.10;;;;;;5045884;28;19921;-82
2021/12/08 14:33:25;;;;;;;;;;;6.60;79.10;;;;;;5041377;28;20554;-82
2021/12/08 14:36:10;;;;;;;;;;;6.60;79.20;;;;;;5041309;28;20458;-81
2021/12/08 14:38:39;;;;;;;;;;;6.60;79.20;;;;;;5066938;28;19926;-82
2021/12/08 14:41:22;;;;;;;;;;;6.60;79.20;;;;;;5055561;28;19974;-82
2021/12/08 14:43:52;;;;;;;;;;;6.60;79.30;;;;;;5085842;28;19920;-82
2021/12/08 14:46:22;;;;;;;;;;;6.60;79.30;;;;;;5075477;28;20399;-82
2021/12/08 14:48:56;;;;;;;;;;;6.60;79.30;;;;;;5075521;28;19920;-82
2021/12/08 14:51:24;;;;;;;;;;;6.50;79.30;;;;;;5075052;28;19930;-82
2021/12/08 14:53:52;;;;;;;;;;;6.50;79.30;;;;;;5075465;28;19920;-81
2021/12/08 14:56:19;;;;;;;;;;;6.50;79.40;;;;;;5072473;28;19920;-81
2021/12/08 14:58:46;;;;;;;;;;;6.50;79.30;;;;;;5074054;28;20341;-81
2021/12/08 15:01:14;;;;;;;;;;;6.50;79.40;;;;;;5076757;28;20448;-82
2021/12/08 15:03:42;;;;;;;;;;;6.50;79.40;;;;;;5075130;28;19927;-81
2021/12/08 15:06:17;;;;;;;;;;;6.50;79.40;;;;;;5074796;28;20007;-82
2021/12/08 15:08:45;;;;;;;;;;;6.50;79.40;;;;;;5073788;28;19924;-82
2021/12/08 15:11:19;;;;;;;;;;;6.40;79.50;;;;;;5070207;28;20321;-81
2021/12/08 15:13:46;;;;;;;;;;;6.40;79.40;;;;;;5073969;28;19920;-82
2021/12/08 15:16:18;;;;;;;;;;;6.40;79.50;;;;;;5076327;28;19920;-82
2021/12/08 15:18:53;;;;;;;;;;;6.40;79.50;;;;;;5074968;28;19927;-82
2021/12/08 15:21:25;;;;;;;;;;;6.40;79.50;;;;;;5074416;28;20411;-82
2021/12/08 15:24:02;;;;;;;;;;;6.40;79.50;;;;;;5074703;28;20304;-82
2021/12/08 15:26:29;;;;;;;;;;;6.30;79.50;;;;;;5073449;28;19926;-82
2021/12/08 15:28:57;;;;;;;;;;;6.30;79.50;;;;;;5071332;28;20372;-82
2021/12/08 15:31:47;;;;;;;;;;;6.30;79.60;;;;;;5075525;28;19931;-82
2021/12/08 15:34:18;;;;;;;;;;;6.30;79.60;;;;;;5076148;28;19924;-82
2021/12/08 15:36:56;;;;;;;;;;;6.20;79.60;;;;;;5074112;28;19924;-82
2021/12/08 15:39:24;;;;;;;;;;;6.20;79.60;;;;;;5074484;28;19925;-82
2021/12/08 15:41:51;;;;;;;;;;;6.20;79.60;;;;;;5074406;28;19920;-82